sensor_id;sensor_type;location;lat;lon;timestamp;pressure;altitude;pressure_sealevel;temperature;humidity
8069;BME280;4077;43.702;24.896;2022-12-29T00:01:51;100554.16;;;0.26;100.00
8069;BME280;4077;43.702;24.896;2022-12-29T00:04:17;100552.72;;;0.30;100.00
8069;BME280;4077;43.702;24.896;2022-12-29T00:06:43;100557.78;;;0.41;100.00
8069;BME280;4077;43.702;24.896;2022-12-29T00:09:11;100553.50;;;0.53;100.00
8069;BME280;4077;43.702;24.896;2022-12-29T00:11:37;100543.00;;;0.36;100.00
8069;BME280;4077;43.702;24.896;2022-12-29T00:14:03;100548.78;;;0.46;100.00
8069;BME280;4077;43.702;24.896;2022-12-29T00:16:47;100539.41;;;0.45;100.00
8069;BME280;4077;43.702;24.896;2022-12-29T00:19:12;100557.97;;;0.44;100.00
8069;BME280;4077;43.702;24.896;2022-12-29T00:21:57;100552.16;;;0.59;100.00
8069;BME280;4077;43.702;24.896;2022-12-29T00:24:42;100567.28;;;0.69;100.00
8069;BME280;4077;43.702;24.896;2022-12-29T00:27:20;100551.44;;;0.73;100.00
8069;BME280;4077;43.702;24.896;2022-12-29T00:30:12;100564.59;;;0.92;100.00
8069;BME280;4077;43.702;24.896;2022-12-29T00:32:57;100557.13;;;0.82;100.00
8069;BME280;4077;43.702;24.896;2022-12-29T00:35:45;100551.69;;;0.89;100.00
8069;BME280;4077;43.702;24.896;2022-12-29T00:38:13;100569.22;;;0.98;100.00
8069;BME280;4077;43.702;24.896;2022-12-29T00:40:57;100579.50;;;0.99;100.00
8069;BME280;4077;43.702;24.896;2022-12-29T00:43:41;100577.63;;;0.97;100.00
8069;BME280;4077;43.702;24.896;2022-12-29T00:46:25;100580.47;;;1.01;100.00
8069;BME280;4077;43.702;24.896;2022-12-29T00:48:50;100573.16;;;1.06;100.00
8069;BME280;4077;43.702;24.896;2022-12-29T00:51:34;100574.44;;;1.13;100.00
8069;BME280;4077;43.702;24.896;2022-12-29T00:54:00;100570.22;;;1.13;100.00
8069;BME280;4077;43.702;24.896;2022-12-29T00:56:25;100580.91;;;1.21;100.00
8069;BME280;4077;43.702;24.896;2022-12-29T00:58:51;100581.69;;;1.20;100.00
8069;BME280;4077;43.702;24.896;2022-12-29T01:01:16;100580.13;;;1.22;100.00
8069;BME280;4077;43.702;24.896;2022-12-29T01:03:42;100582.75;;;1.23;100.00
8069;BME280;4077;43.702;24.896;2022-12-29T01:06:09;100585.13;;;1.33;100.00
8069;BME280;4077;43.702;24.896;2022-12-29T01:08:35;100578.88;;;1.28;100.00
8069;BME280;4077;43.702;24.896;2022-12-29T01:11:09;100566.63;;;1.23;100.00
8069;BME280;4077;43.702;24.896;2022-12-29T01:13:36;100570.94;;;1.24;100.00
8069;BME280;4077;43.702;24.896;2022-12-29T01:16:04;100572.09;;;1.16;100.00
8069;BME280;4077;43.702;24.896;2022-12-29T01:18:29;100554.06;;;0.99;100.00
8069;BME280;4077;43.702;24.896;2022-12-29T01:21:00;100552.81;;;1.06;100.00
8069;BME280;4077;43.702;24.896;2022-12-29T01:23:25;100545.63;;;0.87;100.00
8069;BME280;4077;43.702;24.896;2022-12-29T01:25:51;100542.09;;;0.85;100.00
8069;BME280;4077;43.702;24.896;2022-12-29T01:28:16;100536.59;;;0.79;100.00
8069;BME280;4077;43.702;24.896;2022-12-29T01:30:41;100542.94;;;0.72;100.00
8069;BME280;4077;43.702;24.896;2022-12-29T01:33:07;100537.75;;;0.71;100.00
8069;BME280;4077;43.702;24.896;2022-12-29T01:35:32;100540.34;;;0.84;100.00
8069;BME280;4077;43.702;24.896;2022-12-29T01:37:58;100535.63;;;0.77;100.00
8069;BME280;4077;43.702;24.896;2022-12-29T01:40:24;100534.38;;;0.84;100.00
8069;BME280;4077;43.702;24.896;2022-12-29T01:42:49;100531.00;;;0.96;100.00
8069;BME280;4077;43.702;24.896;2022-12-29T01:45:16;100534.91;;;1.04;100.00
8069;BME280;4077;43.702;24.896;2022-12-29T01:47:57;100523.78;;;1.16;100.00
8069;BME280;4077;43.702;24.896;2022-12-29T01:50:40;100519.25;;;0.98;100.00
8069;BME280;4077;43.702;24.896;2022-12-29T01:53:12;100515.19;;;1.14;100.00
8069;BME280;4077;43.702;24.896;2022-12-29T01:55:45;100517.16;;;1.18;100.00
8069;BME280;4077;43.702;24.896;2022-12-29T01:58:13;100509.78;;;1.09;100.00
8069;BME280;4077;43.702;24.896;2022-12-29T02:00:40;100507.16;;;1.07;100.00
8069;BME280;4077;43.702;24.896;2022-12-29T02:03:06;100507.06;;;1.06;100.00
8069;BME280;4077;43.702;24.896;2022-12-29T02:08:09;100500.09;;;1.17;100.00
8069;BME280;4077;43.702;24.896;2022-12-29T02:10:36;100489.44;;;1.09;100.00
8069;BME280;4077;43.702;24.896;2022-12-29T02:13:02;100481.16;;;1.12;100.00
8069;BME280;4077;43.702;24.896;2022-12-29T02:18:17;100486.25;;;1.38;100.00
8069;BME280;4077;43.702;24.896;2022-12-29T02:21:12;100485.25;;;1.49;100.00
8069;BME280;4077;43.702;24.896;2022-12-29T02:35:03;100485.34;;;1.51;100.00
8069;BME280;4077;43.702;24.896;2022-12-29T02:40:34;100488.88;;;1.66;100.00
8069;BME280;4077;43.702;24.896;2022-12-29T02:48:48;100485.06;;;1.73;100.00
8069;BME280;4077;43.702;24.896;2022-12-29T02:51:24;100477.69;;;1.64;100.00
8069;BME280;4077;43.702;24.896;2022-12-29T02:53:53;100481.31;;;1.68;100.00
8069;BME280;4077;43.702;24.896;2022-12-29T02:56:37;100485.63;;;1.55;100.00
8069;BME280;4077;43.702;24.896;2022-12-29T02:59:03;100479.56;;;1.67;100.00
8069;BME280;4077;43.702;24.896;2022-12-29T03:09:47;100472.72;;;1.79;100.00
8069;BME280;4077;43.702;24.896;2022-12-29T03:12:31;100477.56;;;1.89;100.00
8069;BME280;4077;43.702;24.896;2022-12-29T03:15:28;100461.53;;;1.77;100.00
8069;BME280;4077;43.702;24.896;2022-12-29T03:21:20;100458.72;;;1.72;100.00
8069;BME280;4077;43.702;24.896;2022-12-29T03:24:08;100469.41;;;1.67;100.00
8069;BME280;4077;43.702;24.896;2022-12-29T03:26:35;100461.69;;;1.65;100.00
8069;BME280;4077;43.702;24.896;2022-12-29T03:29:01;100476.03;;;1.64;100.00
8069;BME280;4077;43.702;24.896;2022-12-29T03:31:27;100475.16;;;1.64;100.00
8069;BME280;4077;43.702;24.896;2022-12-29T03:33:55;100484.66;;;1.67;100.00
8069;BME280;4077;43.702;24.896;2022-12-29T03:36:31;100474.41;;;1.65;100.00
8069;BME280;4077;43.702;24.896;2022-12-29T03:39:09;100478.31;;;1.60;100.00
8069;BME280;4077;43.702;24.896;2022-12-29T03:41:38;100466.47;;;1.47;100.00
8069;BME280;4077;43.702;24.896;2022-12-29T03:44:06;100473.72;;;1.41;100.00
8069;BME280;4077;43.702;24.896;2022-12-29T03:46:32;100473.94;;;1.31;100.00
8069;BME280;4077;43.702;24.896;2022-12-29T03:48:57;100476.25;;;1.28;100.00
8069;BME280;4077;43.702;24.896;2022-12-29T03:51:23;100481.34;;;1.28;100.00
8069;BME280;4077;43.702;24.896;2022-12-29T03:53:48;100469.03;;;1.21;100.00
8069;BME280;4077;43.702;24.896;2022-12-29T03:56:14;100481.72;;;1.21;100.00
8069;BME280;4077;43.702;24.896;2022-12-29T03:58:39;100486.81;;;1.21;100.00
8069;BME280;4077;43.702;24.896;2022-12-29T04:01:05;100493.47;;;1.19;100.00
8069;BME280;4077;43.702;24.896;2022-12-29T04:03:30;100502.16;;;1.09;100.00
8069;BME280;4077;43.702;24.896;2022-12-29T04:05:56;100488.75;;;0.98;100.00
8069;BME280;4077;43.702;24.896;2022-12-29T04:08:21;100495.00;;;0.90;100.00
8069;BME280;4077;43.702;24.896;2022-12-29T04:10:48;100494.19;;;0.78;100.00
8069;BME280;4077;43.702;24.896;2022-12-29T04:13:14;100481.84;;;0.71;100.00
8069;BME280;4077;43.702;24.896;2022-12-29T04:15:39;100497.16;;;0.84;100.00
8069;BME280;4077;43.702;24.896;2022-12-29T04:18:06;100498.53;;;0.92;100.00
8069;BME280;4077;43.702;24.896;2022-12-29T04:20:32;100493.22;;;0.89;100.00
8069;BME280;4077;43.702;24.896;2022-12-29T04:23:15;100494.19;;;0.78;100.00
8069;BME280;4077;43.702;24.896;2022-12-29T04:25:45;100500.44;;;0.70;100.00
8069;BME280;4077;43.702;24.896;2022-12-29T04:28:12;100495.69;;;0.49;100.00
8069;BME280;4077;43.702;24.896;2022-12-29T04:30:38;100486.81;;;0.31;100.00
8069;BME280;4077;43.702;24.896;2022-12-29T04:33:03;100493.81;;;0.22;100.00
8069;BME280;4077;43.702;24.896;2022-12-29T04:35:29;100495.13;;;0.17;100.00
8069;BME280;4077;43.702;24.896;2022-12-29T04:37:54;100497.13;;;0.21;100.00
8069;BME280;4077;43.702;24.896;2022-12-29T04:40:20;100506.84;;;0.15;100.00
8069;BME280;4077;43.702;24.896;2022-12-29T04:42:45;100491.38;;;0.12;100.00
8069;BME280;4077;43.702;24.896;2022-12-29T04:45:11;100496.53;;;0.00;100.00
8069;BME280;4077;43.702;24.896;2022-12-29T04:47:36;100508.88;;;-0.05;100.00
8069;BME280;4077;43.702;24.896;2022-12-29T04:50:02;100511.94;;;0.03;100.00
8069;BME280;4077;43.702;24.896;2022-12-29T04:52:28;100508.09;;;-0.04;100.00
8069;BME280;4077;43.702;24.896;2022-12-29T04:54:53;100509.97;;;-0.01;100.00
8069;BME280;4077;43.702;24.896;2022-12-29T04:57:19;100514.84;;;-0.04;100.00
8069;BME280;4077;43.702;24.896;2022-12-29T04:59:44;100504.25;;;-0.10;100.00
8069;BME280;4077;43.702;24.896;2022-12-29T05:02:09;100512.13;;;-0.19;100.00
8069;BME280;4077;43.702;24.896;2022-12-29T05:04:35;100510.81;;;-0.25;100.00
8069;BME280;4077;43.702;24.896;2022-12-29T05:07:00;100501.63;;;-0.23;100.00
8069;BME280;4077;43.702;24.896;2022-12-29T05:09:26;100516.50;;;-0.16;100.00
8069;BME280;4077;43.702;24.896;2022-12-29T05:11:51;100513.88;;;-0.18;100.00
8069;BME280;4077;43.702;24.896;2022-12-29T05:14:17;100511.88;;;-0.22;100.00
8069;BME280;4077;43.702;24.896;2022-12-29T05:16:42;100504.63;;;-0.29;100.00
8069;BME280;4077;43.702;24.896;2022-12-29T05:19:08;100514.66;;;-0.31;100.00
8069;BME280;4077;43.702;24.896;2022-12-29T05:21:33;100503.31;;;-0.36;100.00
8069;BME280;4077;43.702;24.896;2022-12-29T05:23:58;100510.47;;;-0.18;100.00
8069;BME280;4077;43.702;24.896;2022-12-29T05:26:24;100512.91;;;-0.43;100.00
8069;BME280;4077;43.702;24.896;2022-12-29T05:28:50;100518.22;;;-0.52;100.00
8069;BME280;4077;43.702;24.896;2022-12-29T05:31:15;100511.03;;;-0.58;100.00
8069;BME280;4077;43.702;24.896;2022-12-29T05:33:41;100513.38;;;-0.61;100.00
8069;BME280;4077;43.702;24.896;2022-12-29T05:36:07;100512.25;;;-0.64;100.00
8069;BME280;4077;43.702;24.896;2022-12-29T05:38:34;100511.69;;;-0.72;100.00
8069;BME280;4077;43.702;24.896;2022-12-29T05:41:00;100507.63;;;-0.81;100.00
8069;BME280;4077;43.702;24.896;2022-12-29T05:43:26;100517.94;;;-0.90;100.00
8069;BME280;4077;43.702;24.896;2022-12-29T05:45:52;100515.97;;;-0.94;100.00
8069;BME280;4077;43.702;24.896;2022-12-29T05:48:17;100504.94;;;-1.06;100.00
8069;BME280;4077;43.702;24.896;2022-12-29T05:50:47;100513.22;;;-0.97;100.00
8069;BME280;4077;43.702;24.896;2022-12-29T05:53:13;100516.16;;;-1.15;100.00
8069;BME280;4077;43.702;24.896;2022-12-29T05:55:38;100519.22;;;-1.19;100.00
8069;BME280;4077;43.702;24.896;2022-12-29T05:58:03;100523.31;;;-1.21;100.00
8069;BME280;4077;43.702;24.896;2022-12-29T06:00:29;100518.78;;;-1.25;100.00
8069;BME280;4077;43.702;24.896;2022-12-29T06:02:54;100518.75;;;-1.36;100.00
8069;BME280;4077;43.702;24.896;2022-12-29T06:05:20;100528.69;;;-1.28;100.00
8069;BME280;4077;43.702;24.896;2022-12-29T06:07:45;100530.34;;;-1.28;100.00
8069;BME280;4077;43.702;24.896;2022-12-29T06:10:11;100526.16;;;-1.28;100.00
8069;BME280;4077;43.702;24.896;2022-12-29T06:12:36;100529.91;;;-1.23;100.00
8069;BME280;4077;43.702;24.896;2022-12-29T06:15:02;100541.97;;;-1.08;100.00
8069;BME280;4077;43.702;24.896;2022-12-29T06:17:27;100545.69;;;-1.03;100.00
8069;BME280;4077;43.702;24.896;2022-12-29T06:19:52;100542.84;;;-1.08;100.00
8069;BME280;4077;43.702;24.896;2022-12-29T06:22:18;100548.69;;;-0.97;100.00
8069;BME280;4077;43.702;24.896;2022-12-29T06:24:43;100550.22;;;-0.99;100.00
8069;BME280;4077;43.702;24.896;2022-12-29T06:27:09;100551.66;;;-1.03;100.00
8069;BME280;4077;43.702;24.896;2022-12-29T06:29:34;100545.25;;;-1.09;100.00
8069;BME280;4077;43.702;24.896;2022-12-29T06:32:02;100548.13;;;-1.05;100.00
8069;BME280;4077;43.702;24.896;2022-12-29T06:34:28;100550.66;;;-1.05;100.00
8069;BME280;4077;43.702;24.896;2022-12-29T06:36:53;100546.59;;;-0.91;100.00
8069;BME280;4077;43.702;24.896;2022-12-29T06:39:19;100553.13;;;-0.95;100.00
8069;BME280;4077;43.702;24.896;2022-12-29T06:41:44;100549.69;;;-0.84;100.00
8069;BME280;4077;43.702;24.896;2022-12-29T06:44:10;100557.31;;;-0.72;100.00
8069;BME280;4077;43.702;24.896;2022-12-29T06:46:35;100564.81;;;-0.85;100.00
8069;BME280;4077;43.702;24.896;2022-12-29T06:49:01;100568.06;;;-0.41;100.00
8069;BME280;4077;43.702;24.896;2022-12-29T06:51:26;100562.50;;;-0.35;100.00
8069;BME280;4077;43.702;24.896;2022-12-29T06:53:52;100566.50;;;-0.27;100.00
8069;BME280;4077;43.702;24.896;2022-12-29T06:56:17;100564.72;;;-0.28;100.00
8069;BME280;4077;43.702;24.896;2022-12-29T06:58:42;100572.91;;;-0.20;100.00
8069;BME280;4077;43.702;24.896;2022-12-29T07:01:08;100576.19;;;-0.10;100.00
8069;BME280;4077;43.702;24.896;2022-12-29T07:03:33;100573.75;;;-0.08;100.00
8069;BME280;4077;43.702;24.896;2022-12-29T07:05:59;100573.88;;;-0.07;100.00
8069;BME280;4077;43.702;24.896;2022-12-29T07:08:24;100576.66;;;-0.39;100.00
8069;BME280;4077;43.702;24.896;2022-12-29T07:10:50;100574.00;;;-0.40;100.00
8069;BME280;4077;43.702;24.896;2022-12-29T07:13:15;100576.22;;;-0.33;100.00
8069;BME280;4077;43.702;24.896;2022-12-29T07:15:41;100574.22;;;-0.25;100.00
8069;BME280;4077;43.702;24.896;2022-12-29T07:18:06;100577.84;;;-0.22;100.00
8069;BME280;4077;43.702;24.896;2022-12-29T07:20:32;100573.53;;;-0.23;100.00
8069;BME280;4077;43.702;24.896;2022-12-29T07:22:57;100572.91;;;-0.20;100.00
8069;BME280;4077;43.702;24.896;2022-12-29T07:25:23;100567.25;;;-0.16;100.00
8069;BME280;4077;43.702;24.896;2022-12-29T07:27:49;100579.06;;;-0.05;100.00
8069;BME280;4077;43.702;24.896;2022-12-29T07:30:15;100565.34;;;0.05;100.00
8069;BME280;4077;43.702;24.896;2022-12-29T07:32:40;100571.72;;;0.23;100.00
8069;BME280;4077;43.702;24.896;2022-12-29T07:35:06;100573.50;;;1.24;100.00
8069;BME280;4077;43.702;24.896;2022-12-29T07:37:31;100579.38;;;2.02;100.00
8069;BME280;4077;43.702;24.896;2022-12-29T07:39:57;100577.91;;;2.47;100.00
8069;BME280;4077;43.702;24.896;2022-12-29T07:42:22;100586.84;;;2.82;100.00
8069;BME280;4077;43.702;24.896;2022-12-29T07:44:48;100578.56;;;2.86;100.00
8069;BME280;4077;43.702;24.896;2022-12-29T07:47:13;100587.75;;;3.12;100.00
8069;BME280;4077;43.702;24.896;2022-12-29T07:49:39;100595.41;;;3.41;100.00
8069;BME280;4077;43.702;24.896;2022-12-29T07:52:04;100601.91;;;3.80;100.00
8069;BME280;4077;43.702;24.896;2022-12-29T07:54:30;100596.81;;;4.11;100.00
8069;BME280;4077;43.702;24.896;2022-12-29T07:56:55;100594.03;;;4.07;100.00
8069;BME280;4077;43.702;24.896;2022-12-29T07:59:21;100597.72;;;4.12;100.00
8069;BME280;4077;43.702;24.896;2022-12-29T08:01:46;100603.00;;;4.15;100.00
8069;BME280;4077;43.702;24.896;2022-12-29T08:04:11;100604.13;;;4.20;100.00
8069;BME280;4077;43.702;24.896;2022-12-29T08:06:37;100607.94;;;4.12;100.00
8069;BME280;4077;43.702;24.896;2022-12-29T08:09:03;100604.06;;;4.04;100.00
8069;BME280;4077;43.702;24.896;2022-12-29T08:11:29;100598.19;;;4.05;100.00
8069;BME280;4077;43.702;24.896;2022-12-29T08:13:54;100598.94;;;4.19;100.00
8069;BME280;4077;43.702;24.896;2022-12-29T08:16:19;100601.19;;;4.29;100.00
8069;BME280;4077;43.702;24.896;2022-12-29T08:18:45;100594.59;;;4.49;100.00
8069;BME280;4077;43.702;24.896;2022-12-29T08:21:10;100594.78;;;5.35;100.00
8069;BME280;4077;43.702;24.896;2022-12-29T08:23:36;100597.72;;;6.49;100.00
8069;BME280;4077;43.702;24.896;2022-12-29T08:26:04;100624.44;;;7.51;100.00
8069;BME280;4077;43.702;24.896;2022-12-29T08:28:31;100616.53;;;7.06;95.54
8069;BME280;4077;43.702;24.896;2022-12-29T08:30:58;100613.28;;;7.30;96.48
8069;BME280;4077;43.702;24.896;2022-12-29T08:33:24;100607.28;;;7.50;92.32
8069;BME280;4077;43.702;24.896;2022-12-29T08:35:50;100622.56;;;8.10;92.05
8069;BME280;4077;43.702;24.896;2022-12-29T08:38:15;100628.63;;;8.55;90.49
8069;BME280;4077;43.702;24.896;2022-12-29T08:40:41;100627.41;;;8.92;83.00
8069;BME280;4077;43.702;24.896;2022-12-29T08:43:06;100633.28;;;9.36;75.56
8069;BME280;4077;43.702;24.896;2022-12-29T08:45:32;100631.09;;;9.73;75.83
8069;BME280;4077;43.702;24.896;2022-12-29T08:47:57;100622.44;;;9.71;69.66
8069;BME280;4077;43.702;24.896;2022-12-29T08:50:23;100637.03;;;9.45;69.76
8069;BME280;4077;43.702;24.896;2022-12-29T08:52:48;100628.03;;;9.09;71.55
8069;BME280;4077;43.702;24.896;2022-12-29T08:55:14;100623.75;;;9.09;73.05
8069;BME280;4077;43.702;24.896;2022-12-29T08:57:39;100618.78;;;9.65;71.37
8069;BME280;4077;43.702;24.896;2022-12-29T09:00:05;100615.03;;;9.55;69.40
8069;BME280;4077;43.702;24.896;2022-12-29T09:02:31;100613.53;;;9.12;70.70
8069;BME280;4077;43.702;24.896;2022-12-29T09:04:56;100608.94;;;8.80;73.59
8069;BME280;4077;43.702;24.896;2022-12-29T09:07:26;100608.94;;;9.27;72.84
8069;BME280;4077;43.702;24.896;2022-12-29T09:09:51;100618.09;;;9.45;70.50
8069;BME280;4077;43.702;24.896;2022-12-29T09:12:17;100615.44;;;9.42;70.88
8069;BME280;4077;43.702;24.896;2022-12-29T09:14:42;100610.97;;;9.62;71.02
8069;BME280;4077;43.702;24.896;2022-12-29T09:17:10;100601.59;;;9.40;71.61
8069;BME280;4077;43.702;24.896;2022-12-29T09:19:53;100616.88;;;9.59;70.27
8069;BME280;4077;43.702;24.896;2022-12-29T09:22:19;100610.41;;;9.97;71.28
8069;BME280;4077;43.702;24.896;2022-12-29T09:24:45;100618.75;;;11.04;66.67
8069;BME280;4077;43.702;24.896;2022-12-29T09:27:10;100616.06;;;11.31;62.41
8069;BME280;4077;43.702;24.896;2022-12-29T09:29:35;100612.53;;;11.28;62.34
8069;BME280;4077;43.702;24.896;2022-12-29T09:32:01;100598.78;;;11.30;62.05
8069;BME280;4077;43.702;24.896;2022-12-29T09:34:27;100583.19;;;10.07;64.83
8069;BME280;4077;43.702;24.896;2022-12-29T09:36:52;100580.25;;;9.18;68.96
8069;BME280;4077;43.702;24.896;2022-12-29T09:39:17;100574.78;;;8.37;74.11
8069;BME280;4077;43.702;24.896;2022-12-29T09:46:57;100550.75;;;6.70;100.00
8069;BME280;4077;43.702;24.896;2022-12-29T09:52:28;100538.69;;;6.48;100.00
8069;BME280;4077;43.702;24.896;2022-12-29T09:55:03;100538.28;;;6.39;100.00
8069;BME280;4077;43.702;24.896;2022-12-29T09:57:54;100526.59;;;6.26;100.00
8069;BME280;4077;43.702;24.896;2022-12-29T10:00:36;100523.41;;;6.12;100.00
8069;BME280;4077;43.702;24.896;2022-12-29T10:05:41;100515.97;;;5.63;100.00
8069;BME280;4077;43.702;24.896;2022-12-29T10:08:34;100508.94;;;5.77;100.00
8069;BME280;4077;43.702;24.896;2022-12-29T10:24:55;100505.53;;;6.33;100.00
8069;BME280;4077;43.702;24.896;2022-12-29T10:27:22;100505.09;;;6.24;100.00
8069;BME280;4077;43.702;24.896;2022-12-29T10:29:53;100505.19;;;6.45;100.00
8069;BME280;4077;43.702;24.896;2022-12-29T10:32:47;100503.31;;;6.60;100.00
8069;BME280;4077;43.702;24.896;2022-12-29T10:35:18;100498.19;;;6.60;100.00
8069;BME280;4077;43.702;24.896;2022-12-29T10:38:02;100500.94;;;6.65;100.00
8069;BME280;4077;43.702;24.896;2022-12-29T10:43:12;100504.47;;;6.67;100.00
8069;BME280;4077;43.702;24.896;2022-12-29T10:45:39;100503.06;;;6.54;100.00
8069;BME280;4077;43.702;24.896;2022-12-29T10:48:18;100505.78;;;6.58;100.00
8069;BME280;4077;43.702;24.896;2022-12-29T10:50:45;100503.94;;;6.54;100.00
8069;BME280;4077;43.702;24.896;2022-12-29T10:53:18;100501.25;;;6.72;100.00
8069;BME280;4077;43.702;24.896;2022-12-29T10:55:45;100489.47;;;6.76;100.00
8069;BME280;4077;43.702;24.896;2022-12-29T10:58:13;100500.63;;;6.97;100.00
8069;BME280;4077;43.702;24.896;2022-12-29T11:00:40;100490.50;;;7.00;100.00
8069;BME280;4077;43.702;24.896;2022-12-29T11:06:06;100492.75;;;7.34;100.00
8069;BME280;4077;43.702;24.896;2022-12-29T11:08:37;100492.94;;;7.39;100.00
8069;BME280;4077;43.702;24.896;2022-12-29T11:11:06;100495.63;;;7.42;100.00
8069;BME280;4077;43.702;24.896;2022-12-29T11:13:34;100498.78;;;7.35;100.00
8069;BME280;4077;43.702;24.896;2022-12-29T11:15:59;100494.00;;;7.44;100.00
8069;BME280;4077;43.702;24.896;2022-12-29T11:18:39;100485.38;;;7.21;100.00
8069;BME280;4077;43.702;24.896;2022-12-29T11:21:09;100487.50;;;7.10;100.00
8069;BME280;4077;43.702;24.896;2022-12-29T11:24:05;100486.50;;;7.28;100.00
8069;BME280;4077;43.702;24.896;2022-12-29T11:26:32;100488.50;;;7.35;100.00
8069;BME280;4077;43.702;24.896;2022-12-29T11:29:21;100479.56;;;7.48;100.00
8069;BME280;4077;43.702;24.896;2022-12-29T11:31:58;100475.09;;;7.42;100.00
8069;BME280;4077;43.702;24.896;2022-12-29T11:34:32;100461.44;;;7.43;100.00
8069;BME280;4077;43.702;24.896;2022-12-29T11:37:06;100460.13;;;7.54;100.00
8069;BME280;4077;43.702;24.896;2022-12-29T11:40:03;100456.78;;;7.55;100.00
8069;BME280;4077;43.702;24.896;2022-12-29T11:42:51;100450.19;;;7.62;100.00
8069;BME280;4077;43.702;24.896;2022-12-29T11:45:33;100454.41;;;7.61;100.00
8069;BME280;4077;43.702;24.896;2022-12-29T11:48:05;100462.06;;;7.60;100.00
8069;BME280;4077;43.702;24.896;2022-12-29T11:50:33;100451.69;;;7.57;100.00
8069;BME280;4077;43.702;24.896;2022-12-29T11:53:15;100447.09;;;7.71;100.00
8069;BME280;4077;43.702;24.896;2022-12-29T11:55:55;100445.34;;;7.70;100.00
8069;BME280;4077;43.702;24.896;2022-12-29T11:58:31;100435.56;;;7.61;100.00
8069;BME280;4077;43.702;24.896;2022-12-29T12:01:02;100444.97;;;7.60;100.00
8069;BME280;4077;43.702;24.896;2022-12-29T12:03:30;100444.09;;;7.60;100.00
8069;BME280;4077;43.702;24.896;2022-12-29T12:06:03;100434.75;;;7.62;100.00
8069;BME280;4077;43.702;24.896;2022-12-29T12:08:44;100436.31;;;7.58;100.00
8069;BME280;4077;43.702;24.896;2022-12-29T12:11:18;100437.25;;;7.60;100.00
8069;BME280;4077;43.702;24.896;2022-12-29T12:14:18;100430.56;;;7.64;100.00
8069;BME280;4077;43.702;24.896;2022-12-29T12:16:59;100435.25;;;7.53;100.00
8069;BME280;4077;43.702;24.896;2022-12-29T12:22:40;100424.84;;;7.49;100.00
8069;BME280;4077;43.702;24.896;2022-12-29T12:25:17;100420.44;;;7.46;100.00
8069;BME280;4077;43.702;24.896;2022-12-29T12:27:53;100417.19;;;7.50;100.00
8069;BME280;4077;43.702;24.896;2022-12-29T12:30:24;100408.31;;;7.42;100.00
8069;BME280;4077;43.702;24.896;2022-12-29T12:33:05;100412.13;;;7.53;100.00
8069;BME280;4077;43.702;24.896;2022-12-29T12:35:45;100405.00;;;7.46;100.00
8069;BME280;4077;43.702;24.896;2022-12-29T12:43:51;100407.38;;;7.62;100.00
8069;BME280;4077;43.702;24.896;2022-12-29T12:57:26;100410.53;;;7.55;100.00
8069;BME280;4077;43.702;24.896;2022-12-29T13:00:13;100409.56;;;7.53;100.00
8069;BME280;4077;43.702;24.896;2022-12-29T13:03:08;100409.56;;;7.53;100.00
8069;BME280;4077;43.702;24.896;2022-12-29T13:13:58;100411.09;;;7.71;100.00
8069;BME280;4077;43.702;24.896;2022-12-29T13:22:21;100407.91;;;7.76;100.00
8069;BME280;4077;43.702;24.896;2022-12-29T13:30:04;100406.06;;;7.74;100.00
8069;BME280;4077;43.702;24.896;2022-12-29T13:35:59;100421.63;;;7.77;100.00
8069;BME280;4077;43.702;24.896;2022-12-29T13:41:06;100416.88;;;7.65;100.00
8069;BME280;4077;43.702;24.896;2022-12-29T13:43:35;100419.41;;;7.63;100.00
8069;BME280;4077;43.702;24.896;2022-12-29T13:46:12;100414.25;;;7.63;100.00
8069;BME280;4077;43.702;24.896;2022-12-29T13:49:02;100421.06;;;7.85;100.00
8069;BME280;4077;43.702;24.896;2022-12-29T13:51:30;100427.00;;;7.83;100.00
8069;BME280;4077;43.702;24.896;2022-12-29T13:54:13;100418.25;;;8.02;100.00
8069;BME280;4077;43.702;24.896;2022-12-29T14:05:03;100410.75;;;7.84;100.00
8069;BME280;4077;43.702;24.896;2022-12-29T14:07:36;100404.56;;;7.79;100.00
8069;BME280;4077;43.702;24.896;2022-12-29T14:10:03;100409.94;;;7.62;100.00
8069;BME280;4077;43.702;24.896;2022-12-29T14:12:40;100418.00;;;7.72;100.00
8069;BME280;4077;43.702;24.896;2022-12-29T14:17:35;100405.00;;;7.46;100.00
8069;BME280;4077;43.702;24.896;2022-12-29T14:20:02;100400.88;;;7.50;100.00
8069;BME280;4077;43.702;24.896;2022-12-29T14:22:28;100403.97;;;7.41;100.00
8069;BME280;4077;43.702;24.896;2022-12-29T14:24:54;100407.47;;;7.21;100.00
8069;BME280;4077;43.702;24.896;2022-12-29T14:29:47;100408.22;;;6.97;100.00
8069;BME280;4077;43.702;24.896;2022-12-29T14:34:54;100401.84;;;6.67;100.00
8069;BME280;4077;43.702;24.896;2022-12-29T14:37:33;100406.56;;;6.57;100.00
8069;BME280;4077;43.702;24.896;2022-12-29T14:40:16;100403.91;;;5.96;100.00
8069;BME280;4077;43.702;24.896;2022-12-29T14:42:46;100406.75;;;5.65;100.00
8069;BME280;4077;43.702;24.896;2022-12-29T14:47:40;100387.72;;;5.23;100.00
8069;BME280;4077;43.702;24.896;2022-12-29T14:50:23;100387.38;;;5.15;100.00
8069;BME280;4077;43.702;24.896;2022-12-29T14:53:04;100358.94;;;4.91;100.00
8069;BME280;4077;43.702;24.896;2022-12-29T14:55:41;100390.56;;;4.93;100.00
8069;BME280;4077;43.702;24.896;2022-12-29T14:58:14;100390.13;;;4.84;100.00
8069;BME280;4077;43.702;24.896;2022-12-29T15:00:44;100379.28;;;4.54;100.00
8069;BME280;4077;43.702;24.896;2022-12-29T15:08:12;100374.97;;;4.19;100.00
8069;BME280;4077;43.702;24.896;2022-12-29T15:10:45;100374.09;;;4.19;100.00
8069;BME280;4077;43.702;24.896;2022-12-29T15:13:21;100371.28;;;3.98;100.00
8069;BME280;4077;43.702;24.896;2022-12-29T15:15:47;100375.38;;;3.78;100.00
8069;BME280;4077;43.702;24.896;2022-12-29T15:18:24;100381.19;;;3.75;100.00
8069;BME280;4077;43.702;24.896;2022-12-29T15:20:56;100370.00;;;3.57;100.00
8069;BME280;4077;43.702;24.896;2022-12-29T15:23:23;100363.09;;;3.40;100.00
8069;BME280;4077;43.702;24.896;2022-12-29T15:26:00;100367.25;;;3.38;100.00
8069;BME280;4077;43.702;24.896;2022-12-29T15:28:28;100365.63;;;3.23;100.00
8069;BME280;4077;43.702;24.896;2022-12-29T15:31:05;100357.81;;;3.20;100.00